Time;durP1;ratioP1;P1;durP2;ratioP2;P2;SDS_P1;SDS_P2;PMS_P1;PMS_P2;Temp;Humidity;BMP_temperature;BMP_pressure;BME280_temperature;BME280_humidity;BME280_pressure;Samples;Min_cycle;Max_cycle;Signal;HPM_P1;HPM_P2
2021/05/02 00:01:32;;;;;;;13.80;6.97;;;;;;;;;;6256237;23;20408;-96
2021/05/02 00:03:58;;;;;;;16.83;8.47;;;;;;;;;;6259963;23;20415;-96
2021/05/02 00:06:25;;;;;;;20.27;7.97;;;;;;;;;;6259951;23;20474;-96
2021/05/02 00:08:52;;;;;;;11.57;7.07;;;;;;;;;;6258316;23;20414;-95
2021/05/02 00:17:12;;;;;;;11.83;7.70;;;;;;;;;;6301912;22;21085;-96
2021/05/02 00:19:39;;;;;;;13.37;6.63;;;;;;;;;;6318450;22;20479;-95
2021/05/02 00:22:09;;;;;;;13.63;7.27;;;;;;;;;;6353015;22;20416;-96
2021/05/02 00:24:36;;;;;;;13.03;6.93;;;;;;;;;;6318713;22;20458;-96
2021/05/02 00:27:03;;;;;;;12.87;6.53;;;;;;;;;;6316490;22;20417;-96
2021/05/02 00:29:30;;;;;;;18.90;8.17;;;;;;;;;;6319075;22;20477;-96
2021/05/02 00:31:56;;;;;;;15.80;8.97;;;;;;;;;;6325678;22;20476;-95
2021/05/02 00:34:23;;;;;;;14.17;8.07;;;;;;;;;;6325086;22;20416;-96
2021/05/02 00:36:49;;;;;;;15.10;7.73;;;;;;;;;;6319229;22;20413;-96
2021/05/02 00:39:15;;;;;;;15.43;7.53;;;;;;;;;;6322231;22;20517;-96
2021/05/02 00:41:43;;;;;;;15.83;6.73;;;;;;;;;;6325580;22;20408;-96
2021/05/02 00:49:16;;;;;;;10.17;6.73;;;;;;;;;;6257647;22;20450;-96
2021/05/02 00:54:43;;;;;;;19.53;6.90;;;;;;;;;;6292993;22;20454;-96
2021/05/02 01:05:17;;;;;;;14.90;6.57;;;;;;;;;;6289769;22;20456;-95
2021/05/02 01:07:44;;;;;;;9.57;6.40;;;;;;;;;;6318179;22;20424;-94
2021/05/02 01:10:11;;;;;;;15.17;7.17;;;;;;;;;;6318861;22;20440;-94
2021/05/02 01:12:43;;;;;;;27.40;7.40;;;;;;;;;;6328369;22;20424;-96
2021/05/02 01:15:10;;;;;;;13.00;6.13;;;;;;;;;;6323392;22;20429;-95
2021/05/02 01:17:45;;;;;;;13.53;7.40;;;;;;;;;;6319360;22;20980;-95
2021/05/02 01:20:13;;;;;;;14.27;6.73;;;;;;;;;;6317153;22;20443;-95
2021/05/02 01:22:41;;;;;;;13.90;6.83;;;;;;;;;;6315320;22;20491;-95
2021/05/02 01:25:09;;;;;;;11.90;8.43;;;;;;;;;;6317114;22;20410;-94
2021/05/02 01:27:35;;;;;;;10.00;6.70;;;;;;;;;;6347951;22;20406;-96
2021/05/02 01:30:22;;;;;;;12.00;7.20;;;;;;;;;;6354632;22;20412;-96
2021/05/02 01:32:48;;;;;;;11.00;6.80;;;;;;;;;;6353329;22;20454;-95
2021/05/02 01:35:15;;;;;;;19.77;6.87;;;;;;;;;;6352500;22;20435;-95
2021/05/02 01:37:41;;;;;;;12.57;7.60;;;;;;;;;;6349748;22;20968;-95
2021/05/02 01:40:08;;;;;;;17.03;6.90;;;;;;;;;;6350965;22;20446;-95
2021/05/02 01:42:38;;;;;;;13.87;7.23;;;;;;;;;;6350561;22;20486;-94
2021/05/02 01:45:04;;;;;;;17.30;6.93;;;;;;;;;;6351229;22;20429;-94
2021/05/02 01:47:31;;;;;;;12.37;7.27;;;;;;;;;;6360150;22;21032;-95
2021/05/02 01:50:01;;;;;;;14.00;7.00;;;;;;;;;;6320356;22;20435;-95
2021/05/02 01:52:28;;;;;;;10.30;6.80;;;;;;;;;;6349490;22;20957;-94
2021/05/02 01:54:54;;;;;;;14.30;7.63;;;;;;;;;;6346028;22;20432;-94
2021/05/02 01:59:59;;;;;;;13.70;7.10;;;;;;;;;;6317646;22;20451;-96
2021/05/02 02:02:27;;;;;;;12.30;6.80;;;;;;;;;;6272867;22;21662;-96
2021/05/02 02:04:56;;;;;;;14.60;7.30;;;;;;;;;;6255069;23;20505;-96
2021/05/02 02:07:22;;;;;;;14.60;7.40;;;;;;;;;;6260033;23;20486;-95
2021/05/02 02:10:14;;;;;;;18.40;8.07;;;;;;;;;;6264018;22;20406;-96
2021/05/02 02:23:31;;;;;;;8.43;6.70;;;;;;;;;;6289617;22;20427;-95
2021/05/02 02:25:58;;;;;;;14.83;7.50;;;;;;;;;;6285251;22;20427;-96
2021/05/02 02:28:25;;;;;;;14.20;7.07;;;;;;;;;;6302524;22;20842;-96
2021/05/02 02:30:56;;;;;;;16.40;7.03;;;;;;;;;;6347561;22;20452;-96
2021/05/02 02:33:36;;;;;;;14.87;7.13;;;;;;;;;;6356223;22;20460;-96
2021/05/02 02:36:03;;;;;;;14.70;7.40;;;;;;;;;;6349049;22;20491;-96
2021/05/02 02:38:30;;;;;;;10.30;7.43;;;;;;;;;;6353565;22;20404;-96
2021/05/02 02:43:45;;;;;;;15.98;7.80;;;;;;;;;;6324442;22;20511;-96
2021/05/02 02:46:15;;;;;;;14.17;6.90;;;;;;;;;;6320449;22;20232;-96
2021/05/02 02:48:53;;;;;;;21.67;6.97;;;;;;;;;;6326895;22;20412;-96
2021/05/02 02:51:33;;;;;;;13.50;7.30;;;;;;;;;;6311303;22;20459;-96
2021/05/02 02:54:01;;;;;;;13.33;7.20;;;;;;;;;;6323739;22;20412;-96
2021/05/02 02:56:28;;;;;;;15.80;7.73;;;;;;;;;;6319214;22;20417;-96
2021/05/02 02:58:58;;;;;;;14.37;7.47;;;;;;;;;;6326794;22;20409;-96
2021/05/02 03:01:25;;;;;;;11.63;6.67;;;;;;;;;;6329660;22;20424;-96
2021/05/02 03:03:56;;;;;;;10.30;7.50;;;;;;;;;;6327160;22;20415;-96
2021/05/02 03:06:27;;;;;;;15.63;7.13;;;;;;;;;;6321202;22;20487;-96
2021/05/02 03:08:54;;;;;;;15.63;7.13;;;;;;;;;;6319407;22;20409;-96
2021/05/02 03:14:13;;;;;;;11.53;6.83;;;;;;;;;;6287120;22;20454;-96
2021/05/02 03:16:40;;;;;;;16.37;7.53;;;;;;;;;;6316892;22;20408;-96
2021/05/02 03:19:14;;;;;;;14.10;8.10;;;;;;;;;;6316505;22;20438;-96
2021/05/02 03:29:58;;;;;;;14.80;9.50;;;;;;;;;;6285012;22;20444;-96
2021/05/02 03:32:50;;;;;;;15.23;8.00;;;;;;;;;;6285901;22;20805;-96
2021/05/02 03:35:17;;;;;;;15.77;7.27;;;;;;;;;;6220625;23;20464;-96
2021/05/02 03:40:35;;;;;;;14.00;7.10;;;;;;;;;;6270166;22;20586;-96
2021/05/02 03:43:01;;;;;;;13.83;6.33;;;;;;;;;;6282868;22;20532;-96
2021/05/02 03:45:28;;;;;;;11.00;6.20;;;;;;;;;;6287794;22;20440;-93
2021/05/02 03:47:54;;;;;;;17.67;7.40;;;;;;;;;;6288621;22;20410;-93
2021/05/02 03:50:20;;;;;;;24.03;10.27;;;;;;;;;;6287280;22;20513;-95
2021/05/02 03:55:58;;;;;;;22.43;10.30;;;;;;;;;;6279566;22;20468;-96
2021/05/02 03:58:24;;;;;;;17.70;9.23;;;;;;;;;;6286828;22;20413;-96
2021/05/02 04:03:26;;;;;;;17.10;10.17;;;;;;;;;;6268761;22;21005;-96
2021/05/02 04:05:52;;;;;;;14.27;7.70;;;;;;;;;;6261800;23;20407;-95
2021/05/02 04:11:05;;;;;;;12.53;6.40;;;;;;;;;;6263868;22;20434;-96
2021/05/02 04:16:18;;;;;;;14.70;6.20;;;;;;;;;;6273423;22;20442;-96
2021/05/02 04:18:45;;;;;;;12.70;6.30;;;;;;;;;;6323205;22;20440;-96
2021/05/02 04:21:11;;;;;;;11.20;6.40;;;;;;;;;;6321716;22;20403;-95
2021/05/02 04:23:37;;;;;;;11.60;6.40;;;;;;;;;;6319702;22;20408;-96
2021/05/02 04:26:03;;;;;;;13.63;7.20;;;;;;;;;;6317143;22;20406;-95
2021/05/02 04:28:39;;;;;;;14.70;7.43;;;;;;;;;;6319406;22;20411;-94
2021/05/02 04:33:41;;;;;;;12.90;5.97;;;;;;;;;;6263035;23;20448;-95
2021/05/02 04:36:08;;;;;;;12.80;6.53;;;;;;;;;;6259425;23;20409;-96
2021/05/02 04:38:34;;;;;;;16.17;7.67;;;;;;;;;;6257195;23;20408;-94
2021/05/02 04:41:00;;;;;;;14.30;6.80;;;;;;;;;;6255608;23;20438;-94
2021/05/02 04:43:26;;;;;;;12.03;7.17;;;;;;;;;;6257484;23;20406;-96
2021/05/02 04:45:52;;;;;;;18.50;8.67;;;;;;;;;;6255626;23;20409;-96
2021/05/02 04:48:27;;;;;;;13.60;7.73;;;;;;;;;;6258693;23;20443;-96
2021/05/02 04:50:55;;;;;;;11.23;6.20;;;;;;;;;;6293323;22;20463;-96
2021/05/02 04:53:22;;;;;;;12.53;5.93;;;;;;;;;;6294976;22;20550;-96
2021/05/02 04:55:48;;;;;;;11.80;6.57;;;;;;;;;;6321847;22;20407;-95
2021/05/02 04:58:14;;;;;;;13.03;6.40;;;;;;;;;;6319689;22;20404;-96
2021/05/02 05:00:40;;;;;;;11.90;6.80;;;;;;;;;;6316185;22;20929;-96
2021/05/02 05:03:20;;;;;;;13.90;6.93;;;;;;;;;;6316839;22;20422;-96
2021/05/02 05:05:48;;;;;;;13.03;6.70;;;;;;;;;;6317652;22;20505;-95
2021/05/02 05:08:14;;;;;;;19.63;6.97;;;;;;;;;;6318107;22;20400;-94
2021/05/02 05:10:44;;;;;;;17.43;6.53;;;;;;;;;;6313390;22;20454;-96
2021/05/02 05:15:54;;;;;;;15.60;6.00;;;;;;;;;;6321147;22;20447;-96
2021/05/02 05:18:21;;;;;;;16.70;6.03;;;;;;;;;;6327370;22;20468;-96
2021/05/02 05:20:52;;;;;;;11.17;5.90;;;;;;;;;;6327622;22;20420;-96
2021/05/02 05:23:25;;;;;;;16.00;6.60;;;;;;;;;;6331356;22;20449;-96
2021/05/02 05:25:53;;;;;;;16.90;6.17;;;;;;;;;;6326075;22;20408;-96
2021/05/02 05:28:26;;;;;;;15.33;6.67;;;;;;;;;;6329998;22;20395;-96
2021/05/02 05:30:56;;;;;;;11.80;6.00;;;;;;;;;;6333645;22;20452;-96
2021/05/02 05:33:23;;;;;;;9.47;5.83;;;;;;;;;;6328222;22;20491;-96
2021/05/02 05:35:52;;;;;;;9.87;6.40;;;;;;;;;;6325007;22;20396;-96
2021/05/02 05:38:18;;;;;;;13.47;5.67;;;;;;;;;;6320116;22;20472;-96
2021/05/02 05:40:44;;;;;;;16.23;5.90;;;;;;;;;;6317937;22;20425;-96
2021/05/02 05:43:11;;;;;;;16.60;6.80;;;;;;;;;;6318546;22;20430;-96
2021/05/02 05:45:37;;;;;;;11.83;7.00;;;;;;;;;;6320815;22;20478;-96
2021/05/02 05:48:04;;;;;;;14.97;6.50;;;;;;;;;;6320542;22;20404;-96
2021/05/02 05:53:27;;;;;;;14.13;6.40;;;;;;;;;;6320483;22;20414;-96
2021/05/02 05:56:00;;;;;;;15.07;6.27;;;;;;;;;;6359354;22;20454;-96
2021/05/02 05:58:34;;;;;;;11.87;6.57;;;;;;;;;;6360876;22;20430;-96
2021/05/02 06:01:04;;;;;;;14.60;6.27;;;;;;;;;;6336932;22;20453;-96
2021/05/02 06:03:32;;;;;;;14.57;6.70;;;;;;;;;;6327287;22;20404;-96
2021/05/02 06:08:33;;;;;;;17.53;7.20;;;;;;;;;;6321112;22;20425;-96
2021/05/02 06:11:00;;;;;;;13.77;7.30;;;;;;;;;;6317260;22;20522;-96
2021/05/02 06:13:27;;;;;;;18.60;8.27;;;;;;;;;;6319693;22;20408;-96
2021/05/02 06:15:53;;;;;;;16.90;7.43;;;;;;;;;;6318403;22;20738;-96
2021/05/02 06:18:19;;;;;;;20.40;7.83;;;;;;;;;;6321930;22;21078;-96
2021/05/02 06:20:45;;;;;;;17.50;7.13;;;;;;;;;;6316996;22;20464;-96
2021/05/02 06:23:11;;;;;;;15.30;7.87;;;;;;;;;;6316927;22;20424;-96
2021/05/02 06:25:37;;;;;;;16.17;7.07;;;;;;;;;;6310616;22;20464;-95
2021/05/02 06:28:03;;;;;;;16.23;7.80;;;;;;;;;;6317482;22;20433;-94
2021/05/02 06:30:31;;;;;;;16.37;6.47;;;;;;;;;;6321274;22;20511;-95
2021/05/02 06:33:07;;;;;;;15.03;6.57;;;;;;;;;;6321240;22;20404;-96
2021/05/02 06:35:33;;;;;;;16.40;6.47;;;;;;;;;;6329236;22;20419;-96
2021/05/02 06:37:59;;;;;;;15.10;9.20;;;;;;;;;;6328593;22;20433;-94
2021/05/02 06:40:25;;;;;;;48.80;29.73;;;;;;;;;;6321801;22;20422;-96
2021/05/02 06:42:53;;;;;;;30.83;18.47;;;;;;;;;;6323638;22;20434;-96
2021/05/02 06:45:21;;;;;;;11.10;6.83;;;;;;;;;;6323720;22;20416;-96
2021/05/02 06:47:50;;;;;;;11.70;7.00;;;;;;;;;;6325852;22;20432;-95
2021/05/02 06:50:17;;;;;;;14.80;5.97;;;;;;;;;;6318920;22;21004;-96
2021/05/02 06:52:43;;;;;;;15.57;6.47;;;;;;;;;;6321641;22;20403;-96
2021/05/02 06:55:19;;;;;;;15.03;9.27;;;;;;;;;;6321523;22;20423;-96
2021/05/02 06:57:46;;;;;;;15.60;6.60;;;;;;;;;;6319868;22;20399;-96
2021/05/02 07:00:12;;;;;;;14.93;8.90;;;;;;;;;;6317323;22;20513;-96
2021/05/02 07:02:38;;;;;;;11.10;8.60;;;;;;;;;;6313957;22;20499;-96
2021/05/02 07:05:06;;;;;;;21.80;11.20;;;;;;;;;;6317015;22;20458;-96
2021/05/02 07:07:35;;;;;;;12.00;7.47;;;;;;;;;;6319112;22;20750;-96
2021/05/02 07:10:03;;;;;;;12.83;6.97;;;;;;;;;;6325345;22;20443;-96
2021/05/02 07:12:34;;;;;;;13.87;6.57;;;;;;;;;;6321616;22;20497;-96
2021/05/02 07:15:01;;;;;;;17.00;5.90;;;;;;;;;;6318185;22;20440;-96
2021/05/02 07:17:27;;;;;;;15.57;7.10;;;;;;;;;;6320900;22;20416;-96
2021/05/02 07:19:55;;;;;;;10.30;5.87;;;;;;;;;;6319257;22;20906;-96
2021/05/02 07:22:23;;;;;;;11.40;6.23;;;;;;;;;;6316269;22;21487;-94
2021/05/02 07:24:49;;;;;;;11.77;6.60;;;;;;;;;;6316238;22;20404;-96
2021/05/02 07:27:15;;;;;;;13.83;6.40;;;;;;;;;;6316912;22;20408;-96
2021/05/02 07:29:41;;;;;;;13.60;5.67;;;;;;;;;;6316982;22;20450;-95
2021/05/02 07:32:07;;;;;;;14.97;6.20;;;;;;;;;;6314467;22;20478;-94
2021/05/02 07:34:33;;;;;;;10.70;6.00;;;;;;;;;;6317950;22;20404;-96
2021/05/02 07:36:59;;;;;;;12.57;6.47;;;;;;;;;;6309993;22;20430;-95
2021/05/02 07:39:27;;;;;;;16.70;6.97;;;;;;;;;;6306074;22;20434;-95
2021/05/02 07:41:53;;;;;;;9.20;6.00;;;;;;;;;;6309433;22;20473;-96
2021/05/02 07:44:19;;;;;;;14.20;7.03;;;;;;;;;;6309410;22;20467;-96
2021/05/02 07:46:45;;;;;;;12.73;6.40;;;;;;;;;;6310601;22;20435;-96
2021/05/02 07:49:14;;;;;;;18.20;6.27;;;;;;;;;;6311706;22;20412;-96
2021/05/02 07:54:31;;;;;;;11.57;6.10;;;;;;;;;;6318976;22;20440;-96
2021/05/02 07:56:59;;;;;;;8.77;5.63;;;;;;;;;;6327032;22;20400;-96
2021/05/02 07:59:25;;;;;;;11.40;5.73;;;;;;;;;;6321965;22;20411;-95
2021/05/02 08:04:31;;;;;;;9.87;5.20;;;;;;;;;;6295690;22;20868;-96
2021/05/02 08:06:57;;;;;;;10.23;5.40;;;;;;;;;;6322156;22;20428;-96
2021/05/02 08:11:59;;;;;;;10.87;5.50;;;;;;;;;;6296436;22;20464;-96
2021/05/02 08:14:29;;;;;;;14.17;5.13;;;;;;;;;;6327826;22;20404;-96
2021/05/02 08:16:58;;;;;;;15.50;6.00;;;;;;;;;;6330716;22;20402;-96
2021/05/02 08:19:25;;;;;;;12.90;5.60;;;;;;;;;;6322399;22;20481;-96
2021/05/02 08:21:51;;;;;;;13.50;5.93;;;;;;;;;;6327735;22;20441;-94
2021/05/02 08:24:17;;;;;;;12.43;5.70;;;;;;;;;;6329674;22;20391;-96
2021/05/02 08:26:43;;;;;;;10.93;4.93;;;;;;;;;;6328270;22;20386;-96
2021/05/02 08:29:14;;;;;;;11.33;5.30;;;;;;;;;;6326993;22;20418;-96
2021/05/02 08:31:40;;;;;;;9.50;5.90;;;;;;;;;;6326569;22;20447;-95
2021/05/02 08:34:06;;;;;;;11.97;5.03;;;;;;;;;;6326144;22;20445;-95
2021/05/02 08:39:19;;;;;;;11.00;5.43;;;;;;;;;;6324310;22;20468;-96
2021/05/02 08:41:51;;;;;;;16.80;5.40;;;;;;;;;;6330211;22;20460;-96
2021/05/02 08:46:59;;;;;;;12.43;4.90;;;;;;;;;;6272202;23;20429;-96
2021/05/02 08:57:56;;;;;;;13.57;5.33;;;;;;;;;;6318508;22;20415;-94
2021/05/02 09:00:30;;;;;;;14.53;5.50;;;;;;;;;;6326348;22;20422;-96
2021/05/02 09:06:02;;;;;;;12.43;4.83;;;;;;;;;;6330234;22;20424;-96
2021/05/02 09:08:32;;;;;;;11.43;5.40;;;;;;;;;;6330799;22;20415;-96
2021/05/02 09:10:59;;;;;;;11.43;5.67;;;;;;;;;;6327487;22;20457;-96
2021/05/02 09:13:27;;;;;;;12.80;5.10;;;;;;;;;;6325625;22;20453;-95
2021/05/02 09:16:01;;;;;;;15.33;6.10;;;;;;;;;;6325454;22;20407;-95
2021/05/02 09:18:32;;;;;;;13.07;5.90;;;;;;;;;;6323273;22;20419;-96
2021/05/02 09:20:58;;;;;;;10.07;5.67;;;;;;;;;;6322478;22;20470;-96
2021/05/02 09:23:35;;;;;;;7.87;4.77;;;;;;;;;;6323595;22;20431;-96
2021/05/02 09:26:05;;;;;;;17.23;5.20;;;;;;;;;;6266717;23;20389;-96
2021/05/02 09:28:49;;;;;;;15.03;5.23;;;;;;;;;;6268784;23;20473;-96
2021/05/02 09:31:16;;;;;;;13.60;5.40;;;;;;;;;;6261516;23;20449;-96
2021/05/02 09:33:42;;;;;;;11.50;5.30;;;;;;;;;;6262887;23;20410;-96
2021/05/02 09:39:09;;;;;;;12.50;5.30;;;;;;;;;;6268590;22;20448;-96
2021/05/02 09:41:39;;;;;;;16.40;5.07;;;;;;;;;;6264807;23;20470;-93
2021/05/02 09:46:40;;;;;;;13.13;5.50;;;;;;;;;;6310116;22;20756;-94
2021/05/02 09:52:01;;;;;;;10.53;4.93;;;;;;;;;;6324988;22;20475;-96
2021/05/02 09:54:31;;;;;;;10.97;4.50;;;;;;;;;;6320931;22;20483;-96
2021/05/02 09:57:02;;;;;;;11.20;4.93;;;;;;;;;;6322645;22;20407;-95
2021/05/02 09:59:33;;;;;;;9.70;4.27;;;;;;;;;;6323516;22;20942;-96
2021/05/02 10:02:02;;;;;;;11.23;4.50;;;;;;;;;;6323170;22;20455;-95
2021/05/02 10:04:31;;;;;;;12.67;5.53;;;;;;;;;;6330128;22;20395;-96
2021/05/02 10:06:59;;;;;;;13.60;4.97;;;;;;;;;;6326601;22;20415;-96
2021/05/02 10:09:29;;;;;;;11.50;5.07;;;;;;;;;;6327053;22;20400;-96
2021/05/02 10:11:57;;;;;;;14.00;4.57;;;;;;;;;;6327668;22;20474;-96
2021/05/02 10:14:32;;;;;;;10.43;4.43;;;;;;;;;;6324087;22;20404;-96
2021/05/02 10:16:58;;;;;;;15.10;5.00;;;;;;;;;;6331024;22;20423;-96
2021/05/02 10:19:24;;;;;;;12.17;4.70;;;;;;;;;;6331952;22;20426;-96
2021/05/02 10:21:52;;;;;;;12.33;4.27;;;;;;;;;;6327849;22;20406;-96
2021/05/02 10:24:20;;;;;;;13.30;4.70;;;;;;;;;;6323222;22;20442;-96
2021/05/02 10:26:49;;;;;;;8.17;4.47;;;;;;;;;;6325604;22;20411;-96
2021/05/02 10:29:23;;;;;;;12.60;3.70;;;;;;;;;;6320652;22;20443;-96
2021/05/02 10:31:50;;;;;;;11.43;3.93;;;;;;;;;;6326032;22;20527;-95
2021/05/02 10:34:26;;;;;;;10.80;4.20;;;;;;;;;;6323101;22;20489;-95
2021/05/02 10:37:13;;;;;;;10.10;4.30;;;;;;;;;;6315210;22;20407;-96
2021/05/02 10:40:06;;;;;;;7.77;3.80;;;;;;;;;;6322684;22;20392;-95
2021/05/02 10:42:36;;;;;;;10.87;3.90;;;;;;;;;;6318105;22;20455;-95
2021/05/02 10:45:17;;;;;;;15.10;4.07;;;;;;;;;;6320418;22;20461;-96
2021/05/02 10:47:44;;;;;;;15.13;3.90;;;;;;;;;;6317461;22;20438;-96
2021/05/02 10:50:24;;;;;;;9.80;3.70;;;;;;;;;;6324810;22;20404;-96
2021/05/02 10:53:00;;;;;;;12.67;4.27;;;;;;;;;;6326736;22;20421;-96
2021/05/02 10:55:45;;;;;;;13.90;4.00;;;;;;;;;;6325376;22;21278;-96
2021/05/02 10:58:18;;;;;;;14.10;4.43;;;;;;;;;;6318747;22;20424;-96
2021/05/02 11:00:48;;;;;;;12.50;4.03;;;;;;;;;;6320091;22;20402;-96
2021/05/02 11:03:29;;;;;;;10.43;3.60;;;;;;;;;;6327733;22;20459;-96
2021/05/02 11:05:56;;;;;;;12.33;4.00;;;;;;;;;;6309061;22;20442;-96
2021/05/02 11:08:37;;;;;;;12.60;4.37;;;;;;;;;;6314888;22;20423;-96
2021/05/02 11:11:04;;;;;;;13.93;4.10;;;;;;;;;;6317375;22;20455;-96
2021/05/02 11:13:30;;;;;;;14.50;5.00;;;;;;;;;;6322577;22;20406;-96
2021/05/02 11:16:27;;;;;;;10.33;3.93;;;;;;;;;;6331536;22;20456;-96
2021/05/02 11:19:12;;;;;;;9.07;3.67;;;;;;;;;;6316795;22;20479;-95
2021/05/02 11:22:06;;;;;;;10.43;3.70;;;;;;;;;;6315851;22;20400;-96
2021/05/02 11:24:53;;;;;;;9.97;4.50;;;;;;;;;;6317633;22;20397;-95
2021/05/02 11:27:43;;;;;;;12.10;4.10;;;;;;;;;;6317762;22;20423;-96
2021/05/02 11:30:37;;;;;;;10.50;3.90;;;;;;;;;;6321070;22;20396;-96
2021/05/02 11:33:19;;;;;;;17.37;3.93;;;;;;;;;;6303787;22;20459;-96
2021/05/02 11:35:56;;;;;;;13.97;4.13;;;;;;;;;;6266398;22;20409;-96
2021/05/02 11:43:47;;;;;;;12.93;4.50;;;;;;;;;;6235026;23;20410;-95
2021/05/02 11:46:19;;;;;;;9.27;3.97;;;;;;;;;;6229346;23;20411;-94
2021/05/02 11:48:47;;;;;;;9.67;3.83;;;;;;;;;;6229912;23;20433;-93
2021/05/02 11:51:19;;;;;;;12.77;3.93;;;;;;;;;;6230162;23;20466;-95
2021/05/02 11:56:29;;;;;;;13.03;3.93;;;;;;;;;;6322575;22;20412;-95
2021/05/02 12:04:08;;;;;;;14.23;3.97;;;;;;;;;;6317647;22;20470;-96
2021/05/02 12:06:35;;;;;;;11.20;4.33;;;;;;;;;;6329071;22;20436;-96
2021/05/02 12:09:03;;;;;;;10.33;3.60;;;;;;;;;;6359791;22;20427;-96
2021/05/02 12:11:29;;;;;;;10.57;3.77;;;;;;;;;;6341879;22;20452;-96
2021/05/02 12:13:58;;;;;;;11.40;3.47;;;;;;;;;;6332967;22;20384;-96
2021/05/02 12:16:26;;;;;;;14.10;3.97;;;;;;;;;;6305316;22;20480;-96
2021/05/02 12:24:32;;;;;;;12.53;3.80;;;;;;;;;;6271519;22;20449;-96
2021/05/02 12:27:01;;;;;;;8.53;3.47;;;;;;;;;;6311363;22;20546;-95
2021/05/02 12:37:27;;;;;;;8.53;3.70;;;;;;;;;;6282519;22;20440;-96
2021/05/02 12:42:39;;;;;;;11.70;4.23;;;;;;;;;;6273864;22;20453;-95
2021/05/02 12:45:11;;;;;;;10.70;3.80;;;;;;;;;;6292361;22;20415;-96
2021/05/02 12:58:59;;;;;;;11.90;4.90;;;;;;;;;;6334444;22;20506;-96
2021/05/02 13:03:59;;;;;;;12.47;4.47;;;;;;;;;;6282112;22;20461;-96
2021/05/02 13:06:28;;;;;;;10.60;3.73;;;;;;;;;;6364456;22;20430;-96
2021/05/02 13:12:02;;;;;;;10.47;4.10;;;;;;;;;;6361477;22;20450;-96
2021/05/02 13:17:21;;;;;;;19.37;5.73;;;;;;;;;;6324596;22;20439;-96
2021/05/02 13:19:57;;;;;;;12.40;4.60;;;;;;;;;;6330413;22;20415;-96
2021/05/02 13:22:24;;;;;;;10.37;4.27;;;;;;;;;;6302624;22;20380;-96
2021/05/02 13:24:58;;;;;;;14.13;4.50;;;;;;;;;;6304059;22;20462;-96
2021/05/02 13:27:38;;;;;;;11.70;4.23;;;;;;;;;;6322365;22;20422;-96
2021/05/02 13:30:05;;;;;;;14.50;4.50;;;;;;;;;;6329417;22;20760;-96
2021/05/02 13:32:54;;;;;;;15.20;4.60;;;;;;;;;;6322751;22;20454;-96
2021/05/02 13:35:27;;;;;;;12.97;4.23;;;;;;;;;;6332486;22;20404;-95
2021/05/02 13:40:28;;;;;;;18.20;4.73;;;;;;;;;;6265998;23;20437;-96
2021/05/02 13:43:03;;;;;;;10.90;4.27;;;;;;;;;;6271301;22;20444;-96
2021/05/02 13:45:30;;;;;;;13.90;4.50;;;;;;;;;;6322392;22;20477;-93
2021/05/02 13:47:57;;;;;;;15.73;4.90;;;;;;;;;;6234909;23;20442;-96
2021/05/02 13:50:23;;;;;;;13.80;3.93;;;;;;;;;;6278047;22;20478;-95
2021/05/02 13:52:53;;;;;;;15.50;4.67;;;;;;;;;;6323257;22;20452;-96
2021/05/02 13:57:47;;;;;;;9.73;3.83;;;;;;;;;;6322310;22;20443;-96
2021/05/02 14:00:14;;;;;;;11.17;4.37;;;;;;;;;;6321100;22;20814;-95
2021/05/02 14:02:40;;;;;;;13.40;3.73;;;;;;;;;;6325425;22;20455;-96
2021/05/02 14:05:26;;;;;;;14.93;4.30;;;;;;;;;;6324160;22;20403;-96
2021/05/02 14:07:52;;;;;;;9.63;4.17;;;;;;;;;;6321193;22;20447;-96
2021/05/02 14:12:52;;;;;;;11.60;4.50;;;;;;;;;;6293135;22;20464;-96
2021/05/02 14:15:18;;;;;;;13.60;3.83;;;;;;;;;;6285483;22;20470;-95
2021/05/02 14:17:52;;;;;;;16.00;4.83;;;;;;;;;;6332809;22;20423;-96
2021/05/02 14:25:46;;;;;;;19.13;5.37;;;;;;;;;;6328098;22;20502;-96
2021/05/02 14:30:46;;;;;;;8.83;3.50;;;;;;;;;;6276735;22;20531;-96
2021/05/02 14:33:12;;;;;;;20.63;4.23;;;;;;;;;;6325139;22;20418;-94
2021/05/02 14:35:41;;;;;;;15.10;4.10;;;;;;;;;;6324849;22;20404;-94
2021/05/02 14:38:07;;;;;;;11.10;4.40;;;;;;;;;;6325768;22;20396;-96
2021/05/02 14:40:40;;;;;;;12.23;4.03;;;;;;;;;;6307575;22;20440;-96
2021/05/02 14:43:07;;;;;;;18.53;4.13;;;;;;;;;;6326259;22;20452;-96
2021/05/02 14:45:34;;;;;;;14.33;4.03;;;;;;;;;;6328134;22;20430;-96
2021/05/02 14:48:00;;;;;;;12.87;3.70;;;;;;;;;;6330832;22;20416;-96
2021/05/02 14:50:26;;;;;;;13.30;3.90;;;;;;;;;;6329758;22;20448;-96
2021/05/02 14:53:30;;;;;;;11.60;4.30;;;;;;;;;;6332922;22;20490;-96
2021/05/02 14:56:01;;;;;;;13.23;3.70;;;;;;;;;;6323441;22;20431;-96
2021/05/02 14:58:27;;;;;;;10.73;3.90;;;;;;;;;;6328636;22;20380;-96
2021/05/02 15:00:56;;;;;;;9.60;4.10;;;;;;;;;;6318227;22;20523;-96
2021/05/02 15:03:25;;;;;;;9.70;4.43;;;;;;;;;;6321308;22;20497;-96
2021/05/02 15:05:51;;;;;;;14.03;3.93;;;;;;;;;;6323568;22;20408;-96
2021/05/02 15:08:21;;;;;;;12.80;3.93;;;;;;;;;;6324095;22;20473;-96
2021/05/02 15:11:10;;;;;;;14.00;4.43;;;;;;;;;;6318959;22;20431;-96
2021/05/02 15:13:41;;;;;;;9.47;4.80;;;;;;;;;;6327249;22;20392;-94
2021/05/02 15:16:08;;;;;;;8.80;3.10;;;;;;;;;;6324421;22;20460;-96
2021/05/02 15:18:36;;;;;;;14.80;4.10;;;;;;;;;;6297404;22;20429;-96
2021/05/02 15:21:12;;;;;;;12.90;4.13;;;;;;;;;;6288987;22;20467;-96
2021/05/02 15:23:38;;;;;;;14.33;3.77;;;;;;;;;;6313520;22;20443;-95
2021/05/02 15:29:09;;;;;;;8.37;3.40;;;;;;;;;;6303296;22;20443;-96
2021/05/02 15:34:18;;;;;;;12.87;4.33;;;;;;;;;;6290587;22;20476;-96
2021/05/02 15:36:44;;;;;;;9.37;3.87;;;;;;;;;;6283976;22;20413;-96
2021/05/02 15:39:10;;;;;;;13.20;4.40;;;;;;;;;;6283566;22;20413;-95
2021/05/02 15:41:36;;;;;;;10.67;4.00;;;;;;;;;;6285660;22;20612;-96
2021/05/02 15:44:19;;;;;;;9.50;4.17;;;;;;;;;;6308485;22;20448;-96
2021/05/02 15:47:00;;;;;;;18.63;4.87;;;;;;;;;;6311999;22;21074;-96
2021/05/02 15:49:36;;;;;;;16.13;3.67;;;;;;;;;;6303026;22;20466;-96
2021/05/02 15:52:03;;;;;;;13.70;4.37;;;;;;;;;;6329382;22;20446;-96
2021/05/02 15:54:31;;;;;;;13.10;4.20;;;;;;;;;;6329744;22;20418;-96
2021/05/02 15:56:59;;;;;;;11.83;3.80;;;;;;;;;;6359532;22;20407;-96
2021/05/02 15:59:27;;;;;;;10.37;3.80;;;;;;;;;;6363245;22;20416;-96
2021/05/02 16:02:09;;;;;;;15.70;4.07;;;;;;;;;;6353014;22;20395;-96
2021/05/02 16:04:36;;;;;;;9.63;3.53;;;;;;;;;;6353234;22;20470;-95
2021/05/02 16:07:02;;;;;;;15.53;3.97;;;;;;;;;;6341010;22;20563;-95
2021/05/02 16:09:31;;;;;;;15.70;3.90;;;;;;;;;;6353278;22;20422;-96
2021/05/02 16:11:57;;;;;;;11.53;3.63;;;;;;;;;;6348592;22;20443;-96
2021/05/02 16:17:05;;;;;;;12.73;3.40;;;;;;;;;;6340839;22;20387;-96
2021/05/02 16:19:34;;;;;;;13.17;3.63;;;;;;;;;;6352676;22;20476;-95
2021/05/02 16:22:01;;;;;;;18.40;4.13;;;;;;;;;;6352177;22;20415;-94
2021/05/02 16:24:27;;;;;;;15.33;4.07;;;;;;;;;;6344644;22;20406;-94
2021/05/02 16:26:56;;;;;;;14.20;3.83;;;;;;;;;;6349228;22;20407;-96
2021/05/02 16:29:23;;;;;;;11.80;3.90;;;;;;;;;;6355785;22;20403;-96
2021/05/02 16:31:50;;;;;;;16.00;4.30;;;;;;;;;;6350011;22;20439;-92
2021/05/02 16:34:16;;;;;;;12.73;3.73;;;;;;;;;;6344552;22;20907;-95
2021/05/02 16:36:43;;;;;;;10.57;3.87;;;;;;;;;;6353084;22;20506;-96
2021/05/02 16:39:11;;;;;;;15.70;3.50;;;;;;;;;;6353260;22;20454;-94
2021/05/02 16:41:37;;;;;;;17.70;4.20;;;;;;;;;;6350213;22;20403;-96
2021/05/02 16:44:16;;;;;;;13.90;4.00;;;;;;;;;;6350791;22;20403;-96
2021/05/02 16:46:42;;;;;;;16.13;4.57;;;;;;;;;;6362247;22;20466;-93
2021/05/02 16:49:08;;;;;;;12.50;3.17;;;;;;;;;;6350611;22;20457;-95
2021/05/02 16:51:36;;;;;;;17.00;3.53;;;;;;;;;;6350899;22;20438;-96
2021/05/02 16:54:02;;;;;;;21.03;4.90;;;;;;;;;;6340171;22;20410;-96
2021/05/02 16:56:29;;;;;;;12.97;3.70;;;;;;;;;;6329183;22;20516;-95
2021/05/02 16:58:57;;;;;;;11.00;3.50;;;;;;;;;;6359583;22;20411;-96
2021/05/02 17:01:25;;;;;;;12.30;3.63;;;;;;;;;;6330998;22;20421;-96
2021/05/02 17:03:51;;;;;;;15.03;3.90;;;;;;;;;;6358500;22;20426;-96
2021/05/02 17:06:20;;;;;;;18.20;3.43;;;;;;;;;;6364926;22;20418;-96
2021/05/02 17:12:08;;;;;;;13.30;3.50;;;;;;;;;;6346949;22;20455;-96
2021/05/02 17:14:40;;;;;;;12.37;3.50;;;;;;;;;;6351546;22;21218;-96
2021/05/02 17:20:20;;;;;;;10.87;3.03;;;;;;;;;;6312892;22;20477;-96
2021/05/02 17:22:46;;;;;;;9.87;3.97;;;;;;;;;;6325670;22;21055;-96
2021/05/02 17:28:10;;;;;;;15.27;4.00;;;;;;;;;;6294040;22;20466;-96
2021/05/02 17:33:35;;;;;;;15.00;3.73;;;;;;;;;;6348495;22;20400;-95
2021/05/02 17:36:01;;;;;;;10.87;3.20;;;;;;;;;;6350402;22;20414;-95
2021/05/02 17:38:32;;;;;;;6.90;3.07;;;;;;;;;;6355855;22;20418;-96
2021/05/02 17:41:00;;;;;;;17.13;4.30;;;;;;;;;;6360494;22;20403;-96
2021/05/02 17:43:37;;;;;;;13.37;3.90;;;;;;;;;;6358834;22;20520;-96
2021/05/02 17:46:15;;;;;;;21.43;4.97;;;;;;;;;;6367810;22;20379;-96
2021/05/02 18:03:38;;;;;;;18.57;4.20;;;;;;;;;;6232671;23;20411;-96
2021/05/02 18:08:40;;;;;;;19.70;5.50;;;;;;;;;;6258871;22;20415;-96
2021/05/02 18:11:10;;;;;;;23.13;4.23;;;;;;;;;;6270169;23;20393;-96
2021/05/02 18:13:36;;;;;;;20.07;4.80;;;;;;;;;;6270386;22;20442;-96
2021/05/02 18:16:03;;;;;;;17.17;3.77;;;;;;;;;;6316391;22;20777;-93